sensor_id;sensor_type;location;lat;lon;timestamp;temperature;humidity
10788;DHT22;5446;50.826;4.380;2022-07-18T00:01:28;20.50;75.20
10788;DHT22;5446;50.826;4.380;2022-07-18T00:03:54;20.50;75.80
10788;DHT22;5446;50.826;4.380;2022-07-18T00:06:19;20.50;75.80
10788;DHT22;5446;50.826;4.380;2022-07-18T00:08:45;20.40;76.40
10788;DHT22;5446;50.826;4.380;2022-07-18T00:11:11;20.40;78.00
10788;DHT22;5446;50.826;4.380;2022-07-18T00:13:37;20.30;78.90
10788;DHT22;5446;50.826;4.380;2022-07-18T00:16:03;20.20;80.00
10788;DHT22;5446;50.826;4.380;2022-07-18T00:18:29;20.10;81.10
10788;DHT22;5446;50.826;4.380;2022-07-18T00:20:54;20.10;82.00
10788;DHT22;5446;50.826;4.380;2022-07-18T00:23:20;20.10;82.30
10788;DHT22;5446;50.826;4.380;2022-07-18T00:25:46;20.10;82.80
10788;DHT22;5446;50.826;4.380;2022-07-18T00:28:12;20.20;81.30
10788;DHT22;5446;50.826;4.380;2022-07-18T00:30:39;20.20;80.60
10788;DHT22;5446;50.826;4.380;2022-07-18T00:33:05;20.20;82.90
10788;DHT22;5446;50.826;4.380;2022-07-18T00:35:31;20.10;83.60
10788;DHT22;5446;50.826;4.380;2022-07-18T00:37:56;20.10;83.50
10788;DHT22;5446;50.826;4.380;2022-07-18T00:40:22;20.10;82.90
10788;DHT22;5446;50.826;4.380;2022-07-18T00:42:48;20.10;84.00
10788;DHT22;5446;50.826;4.380;2022-07-18T00:45:14;20.10;83.90
10788;DHT22;5446;50.826;4.380;2022-07-18T00:47:40;20.00;84.90
10788;DHT22;5446;50.826;4.380;2022-07-18T00:50:07;20.00;84.10
10788;DHT22;5446;50.826;4.380;2022-07-18T00:52:34;20.00;84.10
10788;DHT22;5446;50.826;4.380;2022-07-18T00:55:00;20.00;85.80
10788;DHT22;5446;50.826;4.380;2022-07-18T00:57:27;20.00;86.50
10788;DHT22;5446;50.826;4.380;2022-07-18T00:59:54;19.80;87.90
10788;DHT22;5446;50.826;4.380;2022-07-18T01:02:38;19.80;88.90
10788;DHT22;5446;50.826;4.380;2022-07-18T01:05:06;19.80;89.90
10788;DHT22;5446;50.826;4.380;2022-07-18T01:07:33;19.70;90.90
10788;DHT22;5446;50.826;4.380;2022-07-18T01:09:59;19.70;91.60
10788;DHT22;5446;50.826;4.380;2022-07-18T01:12:25;19.60;92.10
10788;DHT22;5446;50.826;4.380;2022-07-18T01:14:51;19.60;92.50
10788;DHT22;5446;50.826;4.380;2022-07-18T01:17:18;19.60;92.80
10788;DHT22;5446;50.826;4.380;2022-07-18T01:19:44;19.60;93.60
10788;DHT22;5446;50.826;4.380;2022-07-18T01:22:11;19.50;93.90
10788;DHT22;5446;50.826;4.380;2022-07-18T01:24:37;19.50;94.50
10788;DHT22;5446;50.826;4.380;2022-07-18T01:27:03;19.50;94.60
10788;DHT22;5446;50.826;4.380;2022-07-18T01:29:29;19.50;96.10
10788;DHT22;5446;50.826;4.380;2022-07-18T01:31:54;19.50;96.30
10788;DHT22;5446;50.826;4.380;2022-07-18T01:34:21;19.40;96.80
10788;DHT22;5446;50.826;4.380;2022-07-18T01:36:47;19.40;98.40
10788;DHT22;5446;50.826;4.380;2022-07-18T01:39:13;19.30;99.20
10788;DHT22;5446;50.826;4.380;2022-07-18T01:41:39;19.30;99.90
10788;DHT22;5446;50.826;4.380;2022-07-18T01:44:06;19.20;99.90
10788;DHT22;5446;50.826;4.380;2022-07-18T01:46:32;19.10;99.90
10788;DHT22;5446;50.826;4.380;2022-07-18T01:48:58;19.10;99.90
10788;DHT22;5446;50.826;4.380;2022-07-18T01:51:24;19.00;99.90
10788;DHT22;5446;50.826;4.380;2022-07-18T01:53:55;19.00;99.90
10788;DHT22;5446;50.826;4.380;2022-07-18T01:56:24;19.10;99.90
10788;DHT22;5446;50.826;4.380;2022-07-18T01:58:49;19.00;99.90
10788;DHT22;5446;50.826;4.380;2022-07-18T02:01:16;19.10;99.90
10788;DHT22;5446;50.826;4.380;2022-07-18T02:03:41;19.00;99.90
10788;DHT22;5446;50.826;4.380;2022-07-18T02:06:07;19.00;99.90
10788;DHT22;5446;50.826;4.380;2022-07-18T02:08:33;19.00;99.90
10788;DHT22;5446;50.826;4.380;2022-07-18T02:10:59;19.10;99.90
10788;DHT22;5446;50.826;4.380;2022-07-18T02:13:24;19.10;99.90
10788;DHT22;5446;50.826;4.380;2022-07-18T02:15:50;19.10;99.90
10788;DHT22;5446;50.826;4.380;2022-07-18T02:18:16;19.10;99.90
10788;DHT22;5446;50.826;4.380;2022-07-18T02:20:42;19.10;99.90
10788;DHT22;5446;50.826;4.380;2022-07-18T02:23:08;19.10;99.90
10788;DHT22;5446;50.826;4.380;2022-07-18T02:25:34;19.00;99.90
10788;DHT22;5446;50.826;4.380;2022-07-18T02:28:00;19.00;99.90
10788;DHT22;5446;50.826;4.380;2022-07-18T02:30:26;19.00;99.90
10788;DHT22;5446;50.826;4.380;2022-07-18T02:32:51;19.00;99.90
10788;DHT22;5446;50.826;4.380;2022-07-18T02:35:17;19.00;99.90
10788;DHT22;5446;50.826;4.380;2022-07-18T02:37:43;18.90;99.90
10788;DHT22;5446;50.826;4.380;2022-07-18T02:40:10;18.90;99.90
10788;DHT22;5446;50.826;4.380;2022-07-18T02:42:37;18.90;99.90
10788;DHT22;5446;50.826;4.380;2022-07-18T02:45:05;18.90;99.90
10788;DHT22;5446;50.826;4.380;2022-07-18T02:47:31;18.80;99.90
10788;DHT22;5446;50.826;4.380;2022-07-18T02:49:56;18.80;99.90
10788;DHT22;5446;50.826;4.380;2022-07-18T02:52:22;18.80;99.90
10788;DHT22;5446;50.826;4.380;2022-07-18T02:54:48;18.80;99.90
10788;DHT22;5446;50.826;4.380;2022-07-18T02:57:14;18.70;99.90
10788;DHT22;5446;50.826;4.380;2022-07-18T02:59:39;18.70;99.90
10788;DHT22;5446;50.826;4.380;2022-07-18T03:02:05;18.70;99.90
10788;DHT22;5446;50.826;4.380;2022-07-18T03:04:31;18.70;99.90
10788;DHT22;5446;50.826;4.380;2022-07-18T03:06:57;18.70;99.90
10788;DHT22;5446;50.826;4.380;2022-07-18T03:09:22;18.60;99.90
10788;DHT22;5446;50.826;4.380;2022-07-18T03:11:53;18.50;99.90
10788;DHT22;5446;50.826;4.380;2022-07-18T03:14:19;18.50;99.90
10788;DHT22;5446;50.826;4.380;2022-07-18T03:16:45;18.40;99.90
10788;DHT22;5446;50.826;4.380;2022-07-18T03:19:10;18.30;99.90
10788;DHT22;5446;50.826;4.380;2022-07-18T03:21:36;18.30;99.90
10788;DHT22;5446;50.826;4.380;2022-07-18T03:24:02;18.30;99.90
10788;DHT22;5446;50.826;4.380;2022-07-18T03:26:28;18.20;99.90
10788;DHT22;5446;50.826;4.380;2022-07-18T03:28:54;18.20;99.90
10788;DHT22;5446;50.826;4.380;2022-07-18T03:31:19;18.20;99.90
10788;DHT22;5446;50.826;4.380;2022-07-18T03:33:45;18.20;99.90
10788;DHT22;5446;50.826;4.380;2022-07-18T03:36:11;18.20;99.90
10788;DHT22;5446;50.826;4.380;2022-07-18T03:38:36;18.20;99.90
10788;DHT22;5446;50.826;4.380;2022-07-18T03:41:03;18.20;99.90
10788;DHT22;5446;50.826;4.380;2022-07-18T03:43:29;18.20;99.90
10788;DHT22;5446;50.826;4.380;2022-07-18T03:45:56;18.30;99.90
10788;DHT22;5446;50.826;4.380;2022-07-18T03:48:21;18.30;99.90
10788;DHT22;5446;50.826;4.380;2022-07-18T03:50:47;18.30;99.90
10788;DHT22;5446;50.826;4.380;2022-07-18T03:53:13;18.30;99.90
10788;DHT22;5446;50.826;4.380;2022-07-18T03:55:38;18.30;99.90
10788;DHT22;5446;50.826;4.380;2022-07-18T03:58:04;18.30;99.90
10788;DHT22;5446;50.826;4.380;2022-07-18T04:00:30;18.30;99.90
10788;DHT22;5446;50.826;4.380;2022-07-18T04:02:55;18.10;99.90
10788;DHT22;5446;50.826;4.380;2022-07-18T04:05:21;18.20;99.90
10788;DHT22;5446;50.826;4.380;2022-07-18T04:07:47;18.20;99.90
10788;DHT22;5446;50.826;4.380;2022-07-18T04:10:13;18.20;99.90
10788;DHT22;5446;50.826;4.380;2022-07-18T04:12:50;18.20;99.90
10788;DHT22;5446;50.826;4.380;2022-07-18T04:15:19;18.20;99.90
10788;DHT22;5446;50.826;4.380;2022-07-18T04:17:45;18.20;99.90
10788;DHT22;5446;50.826;4.380;2022-07-18T04:20:11;18.30;99.90
10788;DHT22;5446;50.826;4.380;2022-07-18T04:22:48;18.40;99.90
10788;DHT22;5446;50.826;4.380;2022-07-18T04:25:15;18.40;99.90
10788;DHT22;5446;50.826;4.380;2022-07-18T04:27:41;18.40;99.90
10788;DHT22;5446;50.826;4.380;2022-07-18T04:30:07;18.40;99.90
10788;DHT22;5446;50.826;4.380;2022-07-18T04:32:33;18.40;99.90
10788;DHT22;5446;50.826;4.380;2022-07-18T04:34:59;18.40;99.90
10788;DHT22;5446;50.826;4.380;2022-07-18T04:37:25;18.50;99.90
10788;DHT22;5446;50.826;4.380;2022-07-18T04:39:50;18.50;99.90
10788;DHT22;5446;50.826;4.380;2022-07-18T04:42:16;18.50;99.90
10788;DHT22;5446;50.826;4.380;2022-07-18T04:44:42;18.50;99.90
10788;DHT22;5446;50.826;4.380;2022-07-18T04:47:07;18.60;99.90
10788;DHT22;5446;50.826;4.380;2022-07-18T04:49:33;18.70;99.90
10788;DHT22;5446;50.826;4.380;2022-07-18T04:51:59;18.80;99.90
10788;DHT22;5446;50.826;4.380;2022-07-18T04:54:25;18.80;99.90
10788;DHT22;5446;50.826;4.380;2022-07-18T04:56:50;18.80;99.90
10788;DHT22;5446;50.826;4.380;2022-07-18T04:59:16;18.90;99.90
10788;DHT22;5446;50.826;4.380;2022-07-18T05:01:42;18.90;99.90
10788;DHT22;5446;50.826;4.380;2022-07-18T05:04:07;19.10;99.90
10788;DHT22;5446;50.826;4.380;2022-07-18T05:06:33;19.10;99.90
10788;DHT22;5446;50.826;4.380;2022-07-18T05:08:59;19.20;99.90
10788;DHT22;5446;50.826;4.380;2022-07-18T05:11:24;19.20;99.90
10788;DHT22;5446;50.826;4.380;2022-07-18T05:13:50;19.20;99.90
10788;DHT22;5446;50.826;4.380;2022-07-18T05:16:16;19.40;99.90
10788;DHT22;5446;50.826;4.380;2022-07-18T05:18:41;19.50;99.90
10788;DHT22;5446;50.826;4.380;2022-07-18T05:21:07;19.60;99.90
10788;DHT22;5446;50.826;4.380;2022-07-18T05:23:33;19.60;99.90
10788;DHT22;5446;50.826;4.380;2022-07-18T05:25:58;19.80;99.90
10788;DHT22;5446;50.826;4.380;2022-07-18T05:28:24;19.80;99.90
10788;DHT22;5446;50.826;4.380;2022-07-18T05:30:50;19.90;99.90
10788;DHT22;5446;50.826;4.380;2022-07-18T05:33:16;19.90;99.90
10788;DHT22;5446;50.826;4.380;2022-07-18T05:35:41;19.90;99.90
10788;DHT22;5446;50.826;4.380;2022-07-18T05:38:07;20.00;99.90
10788;DHT22;5446;50.826;4.380;2022-07-18T05:40:33;20.10;99.90
10788;DHT22;5446;50.826;4.380;2022-07-18T05:42:58;20.20;99.90
10788;DHT22;5446;50.826;4.380;2022-07-18T05:45:25;20.20;99.90
10788;DHT22;5446;50.826;4.380;2022-07-18T05:47:52;20.30;99.90
10788;DHT22;5446;50.826;4.380;2022-07-18T05:50:18;20.30;99.90
10788;DHT22;5446;50.826;4.380;2022-07-18T05:52:44;20.50;99.90
10788;DHT22;5446;50.826;4.380;2022-07-18T05:55:10;20.50;99.90
10788;DHT22;5446;50.826;4.380;2022-07-18T05:57:36;20.60;99.90
10788;DHT22;5446;50.826;4.380;2022-07-18T06:00:04;20.60;99.90
10788;DHT22;5446;50.826;4.380;2022-07-18T06:02:31;20.70;99.90
10788;DHT22;5446;50.826;4.380;2022-07-18T06:04:59;20.70;99.90
10788;DHT22;5446;50.826;4.380;2022-07-18T06:07:29;20.70;99.90
10788;DHT22;5446;50.826;4.380;2022-07-18T06:09:54;20.90;99.90
10788;DHT22;5446;50.826;4.380;2022-07-18T06:12:21;21.00;99.90
10788;DHT22;5446;50.826;4.380;2022-07-18T06:14:47;21.10;99.90
10788;DHT22;5446;50.826;4.380;2022-07-18T06:17:12;21.10;99.90
10788;DHT22;5446;50.826;4.380;2022-07-18T06:19:38;21.10;99.90
10788;DHT22;5446;50.826;4.380;2022-07-18T06:22:05;21.20;99.90
10788;DHT22;5446;50.826;4.380;2022-07-18T06:24:31;21.40;99.90
10788;DHT22;5446;50.826;4.380;2022-07-18T06:26:56;21.60;99.90
10788;DHT22;5446;50.826;4.380;2022-07-18T06:29:22;21.60;99.90
10788;DHT22;5446;50.826;4.380;2022-07-18T06:31:48;21.80;99.90
10788;DHT22;5446;50.826;4.380;2022-07-18T06:34:13;21.90;99.90
10788;DHT22;5446;50.826;4.380;2022-07-18T06:36:39;22.00;99.90
10788;DHT22;5446;50.826;4.380;2022-07-18T06:39:05;22.00;99.90
10788;DHT22;5446;50.826;4.380;2022-07-18T06:41:37;22.10;99.90
10788;DHT22;5446;50.826;4.380;2022-07-18T06:44:03;22.20;99.90
10788;DHT22;5446;50.826;4.380;2022-07-18T06:46:29;22.30;99.80
10788;DHT22;5446;50.826;4.380;2022-07-18T06:48:55;22.30;99.10
10788;DHT22;5446;50.826;4.380;2022-07-18T06:51:21;22.40;99.90
10788;DHT22;5446;50.826;4.380;2022-07-18T06:53:46;22.40;99.40
10788;DHT22;5446;50.826;4.380;2022-07-18T06:56:12;22.60;99.50
10788;DHT22;5446;50.826;4.380;2022-07-18T06:58:38;22.70;99.60
10788;DHT22;5446;50.826;4.380;2022-07-18T07:01:04;22.80;99.50
10788;DHT22;5446;50.826;4.380;2022-07-18T07:03:32;22.80;99.90
10788;DHT22;5446;50.826;4.380;2022-07-18T07:05:57;23.00;99.30
10788;DHT22;5446;50.826;4.380;2022-07-18T07:08:23;23.10;98.60
10788;DHT22;5446;50.826;4.380;2022-07-18T07:10:49;23.20;98.10
10788;DHT22;5446;50.826;4.380;2022-07-18T07:13:15;23.30;98.30
10788;DHT22;5446;50.826;4.380;2022-07-18T07:15:40;23.40;97.90
10788;DHT22;5446;50.826;4.380;2022-07-18T07:18:08;23.50;97.40
10788;DHT22;5446;50.826;4.380;2022-07-18T07:20:33;23.60;97.10
10788;DHT22;5446;50.826;4.380;2022-07-18T07:22:59;23.70;96.90
10788;DHT22;5446;50.826;4.380;2022-07-18T07:25:30;23.80;96.80
10788;DHT22;5446;50.826;4.380;2022-07-18T07:27:56;23.90;96.50
10788;DHT22;5446;50.826;4.380;2022-07-18T07:30:22;23.90;96.20
10788;DHT22;5446;50.826;4.380;2022-07-18T07:32:47;24.00;95.90
10788;DHT22;5446;50.826;4.380;2022-07-18T07:35:15;24.10;96.40
10788;DHT22;5446;50.826;4.380;2022-07-18T07:37:44;24.20;96.20
10788;DHT22;5446;50.826;4.380;2022-07-18T07:40:11;24.20;95.90
10788;DHT22;5446;50.826;4.380;2022-07-18T07:42:37;24.30;95.70
10788;DHT22;5446;50.826;4.380;2022-07-18T07:45:04;24.40;95.00
10788;DHT22;5446;50.826;4.380;2022-07-18T07:47:29;24.50;95.30
10788;DHT22;5446;50.826;4.380;2022-07-18T07:49:56;24.60;95.20
10788;DHT22;5446;50.826;4.380;2022-07-18T07:52:22;24.60;95.40
10788;DHT22;5446;50.826;4.380;2022-07-18T07:54:50;24.70;94.90
10788;DHT22;5446;50.826;4.380;2022-07-18T07:57:16;24.80;95.10
10788;DHT22;5446;50.826;4.380;2022-07-18T07:59:42;24.90;94.10
10788;DHT22;5446;50.826;4.380;2022-07-18T08:02:08;24.90;93.50
10788;DHT22;5446;50.826;4.380;2022-07-18T08:04:34;25.00;92.70
10788;DHT22;5446;50.826;4.380;2022-07-18T08:07:00;25.00;93.10
10788;DHT22;5446;50.826;4.380;2022-07-18T08:09:26;25.10;93.20
10788;DHT22;5446;50.826;4.380;2022-07-18T08:11:52;25.20;92.80
10788;DHT22;5446;50.826;4.380;2022-07-18T08:14:17;25.20;92.50
10788;DHT22;5446;50.826;4.380;2022-07-18T08:16:43;25.40;92.30
10788;DHT22;5446;50.826;4.380;2022-07-18T08:19:09;25.50;92.20
10788;DHT22;5446;50.826;4.380;2022-07-18T08:21:35;25.60;91.50
10788;DHT22;5446;50.826;4.380;2022-07-18T08:24:01;25.60;92.10
10788;DHT22;5446;50.826;4.380;2022-07-18T08:26:27;25.60;91.70
10788;DHT22;5446;50.826;4.380;2022-07-18T08:28:52;25.70;91.50
10788;DHT22;5446;50.826;4.380;2022-07-18T08:31:18;25.80;92.10
10788;DHT22;5446;50.826;4.380;2022-07-18T08:33:47;25.90;91.40
10788;DHT22;5446;50.826;4.380;2022-07-18T08:36:13;25.90;90.50
10788;DHT22;5446;50.826;4.380;2022-07-18T08:38:41;26.00;89.60
10788;DHT22;5446;50.826;4.380;2022-07-18T08:41:08;26.10;87.20
10788;DHT22;5446;50.826;4.380;2022-07-18T08:43:33;26.20;87.30
10788;DHT22;5446;50.826;4.380;2022-07-18T08:46:03;26.30;86.10
10788;DHT22;5446;50.826;4.380;2022-07-18T08:48:29;26.30;84.60
10788;DHT22;5446;50.826;4.380;2022-07-18T08:50:55;26.40;84.20
10788;DHT22;5446;50.826;4.380;2022-07-18T08:53:20;26.40;82.80
10788;DHT22;5446;50.826;4.380;2022-07-18T08:55:47;26.40;81.90
10788;DHT22;5446;50.826;4.380;2022-07-18T08:58:14;26.40;79.40
10788;DHT22;5446;50.826;4.380;2022-07-18T09:00:41;26.50;79.10
10788;DHT22;5446;50.826;4.380;2022-07-18T09:03:06;26.60;80.60
10788;DHT22;5446;50.826;4.380;2022-07-18T09:05:33;26.70;79.30
10788;DHT22;5446;50.826;4.380;2022-07-18T09:08:11;26.80;79.40
10788;DHT22;5446;50.826;4.380;2022-07-18T09:10:53;26.90;79.00
10788;DHT22;5446;50.826;4.380;2022-07-18T09:13:22;26.90;79.40
10788;DHT22;5446;50.826;4.380;2022-07-18T09:18:44;27.00;77.40
10788;DHT22;5446;50.826;4.380;2022-07-18T09:21:16;27.00;76.90
10788;DHT22;5446;50.826;4.380;2022-07-18T09:23:45;27.10;76.90
10788;DHT22;5446;50.826;4.380;2022-07-18T09:26:11;27.10;76.20
10788;DHT22;5446;50.826;4.380;2022-07-18T09:28:51;27.10;75.80
10788;DHT22;5446;50.826;4.380;2022-07-18T09:31:22;27.10;74.30
10788;DHT22;5446;50.826;4.380;2022-07-18T09:33:56;27.20;74.00
10788;DHT22;5446;50.826;4.380;2022-07-18T09:36:23;27.20;75.10
10788;DHT22;5446;50.826;4.380;2022-07-18T09:38:48;27.20;73.40
10788;DHT22;5446;50.826;4.380;2022-07-18T09:41:15;27.30;73.30
10788;DHT22;5446;50.826;4.380;2022-07-18T09:43:41;27.40;74.00
10788;DHT22;5446;50.826;4.380;2022-07-18T09:46:08;27.40;74.40
10788;DHT22;5446;50.826;4.380;2022-07-18T09:48:34;27.50;73.90
10788;DHT22;5446;50.826;4.380;2022-07-18T09:51:05;27.60;71.70
10788;DHT22;5446;50.826;4.380;2022-07-18T09:53:42;27.60;72.00
10788;DHT22;5446;50.826;4.380;2022-07-18T09:56:12;27.70;69.00
10788;DHT22;5446;50.826;4.380;2022-07-18T09:58:55;27.80;67.90
10788;DHT22;5446;50.826;4.380;2022-07-18T10:01:21;27.90;68.00
10788;DHT22;5446;50.826;4.380;2022-07-18T10:03:47;28.00;66.30
10788;DHT22;5446;50.826;4.380;2022-07-18T10:06:16;28.00;65.50
10788;DHT22;5446;50.826;4.380;2022-07-18T10:08:42;28.00;64.30
10788;DHT22;5446;50.826;4.380;2022-07-18T10:11:08;28.10;62.70
10788;DHT22;5446;50.826;4.380;2022-07-18T10:13:35;28.20;58.30
10788;DHT22;5446;50.826;4.380;2022-07-18T10:16:02;28.30;59.00
10788;DHT22;5446;50.826;4.380;2022-07-18T10:18:30;28.30;56.40
10788;DHT22;5446;50.826;4.380;2022-07-18T10:26:07;28.50;54.20
10788;DHT22;5446;50.826;4.380;2022-07-18T10:28:35;28.50;52.60
10788;DHT22;5446;50.826;4.380;2022-07-18T10:31:15;28.50;49.80
10788;DHT22;5446;50.826;4.380;2022-07-18T10:33:45;28.50;51.50
10788;DHT22;5446;50.826;4.380;2022-07-18T10:41:30;28.80;51.40
10788;DHT22;5446;50.826;4.380;2022-07-18T10:43:56;28.80;50.20
10788;DHT22;5446;50.826;4.380;2022-07-18T10:46:22;28.80;50.80
10788;DHT22;5446;50.826;4.380;2022-07-18T10:48:49;28.90;48.60
10788;DHT22;5446;50.826;4.380;2022-07-18T10:51:16;28.80;48.30
10788;DHT22;5446;50.826;4.380;2022-07-18T10:59:16;29.30;47.20
10788;DHT22;5446;50.826;4.380;2022-07-18T11:01:50;29.20;45.60
10788;DHT22;5446;50.826;4.380;2022-07-18T11:04:26;29.30;47.20
10788;DHT22;5446;50.826;4.380;2022-07-18T11:07:02;29.30;46.80
10788;DHT22;5446;50.826;4.380;2022-07-18T11:09:46;29.40;46.80
10788;DHT22;5446;50.826;4.380;2022-07-18T11:12:21;29.50;46.70
10788;DHT22;5446;50.826;4.380;2022-07-18T11:15:08;29.50;46.40
10788;DHT22;5446;50.826;4.380;2022-07-18T11:17:53;29.40;45.80
10788;DHT22;5446;50.826;4.380;2022-07-18T11:20:27;29.40;44.00
10788;DHT22;5446;50.826;4.380;2022-07-18T11:22:59;29.50;45.00
10788;DHT22;5446;50.826;4.380;2022-07-18T11:25:28;29.60;45.30
10788;DHT22;5446;50.826;4.380;2022-07-18T11:27:55;29.70;43.30
10788;DHT22;5446;50.826;4.380;2022-07-18T11:30:23;29.90;41.00
10788;DHT22;5446;50.826;4.380;2022-07-18T11:32:49;29.80;40.30
10788;DHT22;5446;50.826;4.380;2022-07-18T11:35:16;29.80;41.20
10788;DHT22;5446;50.826;4.380;2022-07-18T11:37:49;29.70;40.60
10788;DHT22;5446;50.826;4.380;2022-07-18T11:40:16;29.70;39.20
10788;DHT22;5446;50.826;4.380;2022-07-18T11:42:42;29.70;39.40
10788;DHT22;5446;50.826;4.380;2022-07-18T11:45:10;29.80;36.10
10788;DHT22;5446;50.826;4.380;2022-07-18T11:47:51;29.90;36.70
10788;DHT22;5446;50.826;4.380;2022-07-18T11:50:35;30.10;36.10
10788;DHT22;5446;50.826;4.380;2022-07-18T11:53:01;30.20;36.90
10788;DHT22;5446;50.826;4.380;2022-07-18T11:55:38;30.20;37.70
10788;DHT22;5446;50.826;4.380;2022-07-18T11:58:13;30.30;37.40
10788;DHT22;5446;50.826;4.380;2022-07-18T12:00:41;30.30;35.30
10788;DHT22;5446;50.826;4.380;2022-07-18T12:03:08;30.30;35.10
10788;DHT22;5446;50.826;4.380;2022-07-18T12:05:48;30.40;35.90
10788;DHT22;5446;50.826;4.380;2022-07-18T12:08:31;30.30;33.70
10788;DHT22;5446;50.826;4.380;2022-07-18T12:11:03;30.40;32.90
10788;DHT22;5446;50.826;4.380;2022-07-18T12:19:12;30.70;31.40
10788;DHT22;5446;50.826;4.380;2022-07-18T12:22:10;30.70;31.10
10788;DHT22;5446;50.826;4.380;2022-07-18T12:24:41;30.70;31.40
10788;DHT22;5446;50.826;4.380;2022-07-18T12:30:21;30.90;29.70
10788;DHT22;5446;50.826;4.380;2022-07-18T12:32:56;31.00;30.00
10788;DHT22;5446;50.826;4.380;2022-07-18T12:35:35;31.00;30.10
10788;DHT22;5446;50.826;4.380;2022-07-18T12:38:07;31.10;30.80
10788;DHT22;5446;50.826;4.380;2022-07-18T12:43:07;31.20;29.30
10788;DHT22;5446;50.826;4.380;2022-07-18T12:45:34;31.40;28.30
10788;DHT22;5446;50.826;4.380;2022-07-18T12:48:00;31.40;27.80
10788;DHT22;5446;50.826;4.380;2022-07-18T12:50:26;31.40;26.60
10788;DHT22;5446;50.826;4.380;2022-07-18T12:52:52;31.50;26.00
10788;DHT22;5446;50.826;4.380;2022-07-18T12:55:17;31.60;27.00
10788;DHT22;5446;50.826;4.380;2022-07-18T12:57:45;31.60;26.90
10788;DHT22;5446;50.826;4.380;2022-07-18T13:00:11;31.70;26.80
10788;DHT22;5446;50.826;4.380;2022-07-18T13:02:37;31.80;27.10
10788;DHT22;5446;50.826;4.380;2022-07-18T13:05:03;31.80;26.40
10788;DHT22;5446;50.826;4.380;2022-07-18T13:07:29;31.90;26.70
10788;DHT22;5446;50.826;4.380;2022-07-18T13:09:54;32.00;27.80
10788;DHT22;5446;50.826;4.380;2022-07-18T13:12:20;32.00;24.90
10788;DHT22;5446;50.826;4.380;2022-07-18T13:14:46;32.00;24.50
10788;DHT22;5446;50.826;4.380;2022-07-18T13:17:12;32.00;24.70
10788;DHT22;5446;50.826;4.380;2022-07-18T13:19:38;32.00;24.50
10788;DHT22;5446;50.826;4.380;2022-07-18T13:22:04;31.90;24.30
10788;DHT22;5446;50.826;4.380;2022-07-18T13:24:30;32.00;24.50
10788;DHT22;5446;50.826;4.380;2022-07-18T13:26:55;32.10;23.70
10788;DHT22;5446;50.826;4.380;2022-07-18T13:29:21;32.30;24.60
10788;DHT22;5446;50.826;4.380;2022-07-18T13:31:47;32.40;24.90
10788;DHT22;5446;50.826;4.380;2022-07-18T13:34:15;32.40;25.90
10788;DHT22;5446;50.826;4.380;2022-07-18T13:36:40;32.40;24.80
10788;DHT22;5446;50.826;4.380;2022-07-18T13:39:06;32.50;24.60
10788;DHT22;5446;50.826;4.380;2022-07-18T13:41:32;32.50;24.90
10788;DHT22;5446;50.826;4.380;2022-07-18T13:43:58;32.60;25.10
10788;DHT22;5446;50.826;4.380;2022-07-18T13:46:24;32.70;22.80
10788;DHT22;5446;50.826;4.380;2022-07-18T13:48:50;32.70;22.70
10788;DHT22;5446;50.826;4.380;2022-07-18T13:51:16;32.70;22.60
10788;DHT22;5446;50.826;4.380;2022-07-18T13:53:42;32.80;23.20
10788;DHT22;5446;50.826;4.380;2022-07-18T13:56:07;32.90;23.80
10788;DHT22;5446;50.826;4.380;2022-07-18T13:58:33;33.00;23.00
10788;DHT22;5446;50.826;4.380;2022-07-18T14:00:59;33.00;23.00
10788;DHT22;5446;50.826;4.380;2022-07-18T14:03:25;33.10;22.70
10788;DHT22;5446;50.826;4.380;2022-07-18T14:05:51;33.10;22.20
10788;DHT22;5446;50.826;4.380;2022-07-18T14:08:16;33.00;22.50
10788;DHT22;5446;50.826;4.380;2022-07-18T14:10:42;33.10;22.80
10788;DHT22;5446;50.826;4.380;2022-07-18T14:13:08;33.10;22.70
10788;DHT22;5446;50.826;4.380;2022-07-18T14:15:34;33.10;22.40
10788;DHT22;5446;50.826;4.380;2022-07-18T14:17:59;33.20;22.70
10788;DHT22;5446;50.826;4.380;2022-07-18T14:20:26;33.20;21.80
10788;DHT22;5446;50.826;4.380;2022-07-18T14:22:51;33.40;21.50
10788;DHT22;5446;50.826;4.380;2022-07-18T14:25:17;33.50;21.60
10788;DHT22;5446;50.826;4.380;2022-07-18T14:27:44;33.60;21.30
10788;DHT22;5446;50.826;4.380;2022-07-18T14:30:13;33.50;21.00
10788;DHT22;5446;50.826;4.380;2022-07-18T14:32:39;33.40;20.90
10788;DHT22;5446;50.826;4.380;2022-07-18T14:35:06;33.30;20.10
10788;DHT22;5446;50.826;4.380;2022-07-18T14:37:32;33.40;20.30
10788;DHT22;5446;50.826;4.380;2022-07-18T14:39:58;33.50;20.80
10788;DHT22;5446;50.826;4.380;2022-07-18T14:42:25;33.40;20.30
10788;DHT22;5446;50.826;4.380;2022-07-18T14:44:52;33.50;20.80
10788;DHT22;5446;50.826;4.380;2022-07-18T14:47:18;33.50;20.20
10788;DHT22;5446;50.826;4.380;2022-07-18T14:49:44;33.50;20.50
10788;DHT22;5446;50.826;4.380;2022-07-18T14:52:10;33.70;19.10
10788;DHT22;5446;50.826;4.380;2022-07-18T14:54:35;33.60;19.00
10788;DHT22;5446;50.826;4.380;2022-07-18T14:57:01;33.70;19.00
10788;DHT22;5446;50.826;4.380;2022-07-18T14:59:30;33.60;18.60
10788;DHT22;5446;50.826;4.380;2022-07-18T15:01:56;33.80;20.10
10788;DHT22;5446;50.826;4.380;2022-07-18T15:04:27;34.00;19.60
10788;DHT22;5446;50.826;4.380;2022-07-18T15:06:52;34.10;19.60
10788;DHT22;5446;50.826;4.380;2022-07-18T15:09:18;34.20;18.90
10788;DHT22;5446;50.826;4.380;2022-07-18T15:11:44;34.30;19.40
10788;DHT22;5446;50.826;4.380;2022-07-18T15:14:10;34.30;19.30
10788;DHT22;5446;50.826;4.380;2022-07-18T15:16:36;34.30;18.30
10788;DHT22;5446;50.826;4.380;2022-07-18T15:19:03;34.40;19.20
10788;DHT22;5446;50.826;4.380;2022-07-18T15:21:29;34.40;18.50
10788;DHT22;5446;50.826;4.380;2022-07-18T15:23:54;34.70;18.30
10788;DHT22;5446;50.826;4.380;2022-07-18T15:26:20;35.00;17.70
10788;DHT22;5446;50.826;4.380;2022-07-18T15:28:46;35.30;17.20
10788;DHT22;5446;50.826;4.380;2022-07-18T15:31:11;35.20;16.80
10788;DHT22;5446;50.826;4.380;2022-07-18T15:33:37;35.40;17.20
10788;DHT22;5446;50.826;4.380;2022-07-18T15:36:03;35.50;16.20
10788;DHT22;5446;50.826;4.380;2022-07-18T15:38:29;35.60;16.20
10788;DHT22;5446;50.826;4.380;2022-07-18T15:40:54;36.00;17.10
10788;DHT22;5446;50.826;4.380;2022-07-18T15:43:20;36.40;16.10
10788;DHT22;5446;50.826;4.380;2022-07-18T15:45:46;36.40;15.40
10788;DHT22;5446;50.826;4.380;2022-07-18T15:48:11;36.50;16.90
10788;DHT22;5446;50.826;4.380;2022-07-18T15:50:37;36.60;14.10
10788;DHT22;5446;50.826;4.380;2022-07-18T15:53:03;36.60;14.10
10788;DHT22;5446;50.826;4.380;2022-07-18T15:55:29;36.80;14.10
10788;DHT22;5446;50.826;4.380;2022-07-18T15:57:56;37.00;14.80
10788;DHT22;5446;50.826;4.380;2022-07-18T16:00:21;37.40;15.80
10788;DHT22;5446;50.826;4.380;2022-07-18T16:02:47;37.70;15.80
10788;DHT22;5446;50.826;4.380;2022-07-18T16:05:13;37.80;14.00
10788;DHT22;5446;50.826;4.380;2022-07-18T16:07:40;37.90;13.70
10788;DHT22;5446;50.826;4.380;2022-07-18T16:10:06;37.70;13.30
10788;DHT22;5446;50.826;4.380;2022-07-18T16:12:33;37.80;14.70
10788;DHT22;5446;50.826;4.380;2022-07-18T16:14:58;38.00;13.50